Time;durP1;ratioP1;P1;durP2;ratioP2;P2;SDS_P1;SDS_P2;PMS_P1;PMS_P2;Temp;Humidity;BMP_temperature;BMP_pressure;BME280_temperature;BME280_humidity;BME280_pressure;Samples;Min_cycle;Max_cycle;Signal;HPM_P1;HPM_P2
2020/12/28 00:02:26;;;;;;;5.55;5.05;;;28.40;84.50;;;;;;4927825;28;20254;-49
2020/12/28 00:04:57;;;;;;;5.63;5.13;;;28.40;84.50;;;;;;4918228;28;20296;-48
2020/12/28 00:07:28;;;;;;;5.25;4.75;;;28.40;84.60;;;;;;4934534;28;20231;-49
2020/12/28 00:09:58;;;;;;;5.72;5.20;;;28.40;84.60;;;;;;4928286;28;20284;-50
2020/12/28 00:12:46;;;;;;;5.75;5.25;;;28.40;84.60;;;;;;4927183;28;20312;-49
2020/12/28 00:15:19;;;;;;;5.97;4.90;;;28.40;84.90;;;;;;4966979;28;20239;-46
2020/12/28 00:17:50;;;;;;;6.55;5.95;;;28.40;85.00;;;;;;4971834;28;20232;-46
2020/12/28 00:20:21;;;;;;;7.53;6.47;;;28.40;85.10;;;;;;4969082;28;20703;-49
2020/12/28 00:22:52;;;;;;;5.95;5.40;;;28.40;85.20;;;;;;4965736;28;20230;-50
2020/12/28 00:25:22;;;;;;;6.13;5.53;;;28.50;85.50;;;;;;4968402;28;20228;-50
2020/12/28 00:27:54;;;;;;;6.22;5.63;;;28.50;85.70;;;;;;4968359;28;20252;-48
2020/12/28 00:30:25;;;;;;;6.38;5.78;;;28.50;85.90;;;;;;4980756;28;20229;-53
2020/12/28 00:32:55;;;;;;;5.93;4.97;;;28.50;86.10;;;;;;4967654;28;20241;-50
2020/12/28 00:35:25;;;;;;;7.05;6.35;;;28.60;86.40;;;;;;4968391;28;20228;-52
2020/12/28 00:37:56;;;;;;;8.98;6.85;;;28.60;86.50;;;;;;4971555;28;20887;-48
2020/12/28 00:40:27;;;;;;;6.32;5.78;;;28.60;86.80;;;;;;4991159;28;20243;-50
2020/12/28 00:42:58;;;;;;;6.38;5.78;;;28.60;86.90;;;;;;4968551;28;20748;-51
2020/12/28 00:45:29;;;;;;;8.73;6.80;;;28.70;87.20;;;;;;4967861;28;20260;-49
2020/12/28 00:47:59;;;;;;;6.53;5.93;;;28.70;87.40;;;;;;4968178;28;20236;-50
2020/12/28 00:50:30;;;;;;;7.68;6.97;;;28.80;87.60;;;;;;4966095;28;20232;-49
2020/12/28 00:53:00;;;;;;;8.00;7.20;;;28.80;87.80;;;;;;4967947;28;20699;-48
2020/12/28 00:55:32;;;;;;;7.38;6.60;;;28.90;88.00;;;;;;4967356;28;20245;-48
2020/12/28 00:58:03;;;;;;;6.45;5.80;;;28.90;88.20;;;;;;4967837;28;20309;-48
2020/12/28 01:00:34;;;;;;;5.13;4.72;;;29.00;88.50;;;;;;4967620;28;20304;-48
2020/12/28 01:03:04;;;;;;;4.85;4.40;;;29.10;88.50;;;;;;4970036;28;20232;-48
2020/12/28 01:05:35;;;;;;;5.07;3.85;;;29.10;88.80;;;;;;4967196;28;20229;-48
2020/12/28 01:08:05;;;;;;;4.80;3.95;;;29.20;88.80;;;;;;4969062;28;20240;-51
2020/12/28 01:10:36;;;;;;;3.38;3.08;;;29.20;88.80;;;;;;4976864;28;20224;-48
2020/12/28 01:13:09;;;;;;;3.55;3.17;;;29.30;89.00;;;;;;4966801;28;20232;-48
2020/12/28 01:15:40;;;;;;;3.30;3.00;;;29.40;89.30;;;;;;4968765;28;20741;-51
2020/12/28 01:18:11;;;;;;;4.57;3.33;;;29.40;89.20;;;;;;4967701;28;20243;-50
2020/12/28 01:20:42;;;;;;;3.78;3.45;;;29.50;89.20;;;;;;4968506;28;20236;-49
2020/12/28 01:23:12;;;;;;;4.47;3.47;;;29.60;89.20;;;;;;4968375;28;20578;-49
2020/12/28 01:25:42;;;;;;;4.28;3.67;;;29.60;89.20;;;;;;4967949;28;20625;-49
2020/12/28 01:28:14;;;;;;;5.07;4.53;;;29.70;89.20;;;;;;4995570;28;20232;-50
2020/12/28 01:30:46;;;;;;;3.85;3.47;;;29.70;89.50;;;;;;4967948;28;20768;-48
2020/12/28 01:33:16;;;;;;;3.03;2.72;;;29.80;89.40;;;;;;4968545;28;20243;-48
2020/12/28 01:35:47;;;;;;;2.92;2.72;;;29.80;89.20;;;;;;4968063;28;20237;-48
2020/12/28 01:38:18;;;;;;;3.05;2.75;;;29.90;88.80;;;;;;4968021;28;20818;-48
2020/12/28 01:40:48;;;;;;;3.25;2.38;;;29.90;88.30;;;;;;4968280;28;20233;-48
2020/12/28 01:43:20;;;;;;;2.63;2.42;;;30.00;88.20;;;;;;4968115;28;20231;-50
2020/12/28 01:45:50;;;;;;;3.15;2.92;;;30.00;88.00;;;;;;4968532;28;20289;-50
2020/12/28 01:48:21;;;;;;;3.53;3.17;;;30.10;88.10;;;;;;4969030;28;20237;-48
2020/12/28 01:50:52;;;;;;;3.00;2.80;;;30.10;87.10;;;;;;4969026;28;20684;-48
2020/12/28 01:53:23;;;;;;;3.20;2.90;;;30.20;87.00;;;;;;4970775;28;20228;-49
2020/12/28 01:55:56;;;;;;;3.30;3.00;;;30.20;87.10;;;;;;4955399;28;20340;-48
2020/12/28 01:58:28;;;;;;;4.43;4.03;;;30.30;87.10;;;;;;5006507;28;20709;-49
2020/12/28 02:00:59;;;;;;;4.35;3.95;;;30.40;86.20;;;;;;5013017;28;20293;-49
2020/12/28 02:03:29;;;;;;;4.97;4.53;;;30.40;86.30;;;;;;4995594;28;20239;-50
2020/12/28 02:06:00;;;;;;;4.70;4.30;;;30.40;86.00;;;;;;4969489;28;20590;-49
2020/12/28 02:08:30;;;;;;;4.57;4.18;;;30.50;85.80;;;;;;4971312;28;20248;-48
2020/12/28 02:11:01;;;;;;;4.50;4.10;;;30.60;85.40;;;;;;4971514;28;20237;-51
2020/12/28 02:13:32;;;;;;;4.93;4.53;;;30.60;84.80;;;;;;5034446;28;20233;-49
2020/12/28 02:16:03;;;;;;;4.88;4.20;;;30.70;84.60;;;;;;4981945;28;20228;-48
2020/12/28 02:18:33;;;;;;;4.55;4.15;;;30.70;84.40;;;;;;4971217;28;20233;-49
2020/12/28 02:21:04;;;;;;;4.88;4.47;;;30.80;84.20;;;;;;4971362;28;20236;-50
2020/12/28 02:23:36;;;;;;;6.07;5.47;;;30.80;83.80;;;;;;4970159;28;20649;-48
2020/12/28 02:26:06;;;;;;;6.07;5.57;;;30.80;82.80;;;;;;4970662;28;20229;-48
2020/12/28 02:28:37;;;;;;;7.93;6.18;;;30.80;82.80;;;;;;4971006;28;20711;-49
2020/12/28 02:31:07;;;;;;;6.13;5.43;;;30.90;82.50;;;;;;4963045;28;20255;-48
2020/12/28 02:33:40;;;;;;;5.40;4.90;;;30.90;82.60;;;;;;4951749;28;20239;-48
2020/12/28 02:36:11;;;;;;;5.65;5.15;;;30.90;83.40;;;;;;4961915;28;20232;-48
2020/12/28 02:38:43;;;;;;;5.43;4.93;;;30.90;82.60;;;;;;4970041;28;20324;-50
2020/12/28 02:41:13;;;;;;;5.65;5.15;;;31.00;82.60;;;;;;4970821;28;20314;-49
2020/12/28 02:43:44;;;;;;;6.85;6.15;;;31.10;82.80;;;;;;4970692;28;20237;-53
2020/12/28 02:46:15;;;;;;;6.63;5.95;;;31.20;82.90;;;;;;4968847;28;20604;-51
2020/12/28 02:48:45;;;;;;;6.40;5.85;;;31.20;82.40;;;;;;4968757;28;20240;-48
2020/12/28 02:51:15;;;;;;;8.70;6.50;;;31.30;82.10;;;;;;4975347;28;20577;-49
2020/12/28 02:53:47;;;;;;;6.38;5.68;;;31.30;81.60;;;;;;4968159;28;20237;-50
2020/12/28 02:56:19;;;;;;;6.72;6.05;;;31.40;81.50;;;;;;4953655;28;20233;-53
2020/12/28 02:58:49;;;;;;;8.77;7.93;;;31.50;81.30;;;;;;4968196;28;20240;-49
2020/12/28 03:01:20;;;;;;;9.18;8.13;;;31.50;79.70;;;;;;4965135;28;20260;-49
2020/12/28 03:03:50;;;;;;;8.48;6.75;;;31.60;79.00;;;;;;4968738;28;20374;-48
2020/12/28 03:06:20;;;;;;;7.47;6.78;;;31.60;79.10;;;;;;4968897;28;20228;-49
2020/12/28 03:08:52;;;;;;;6.95;6.25;;;31.60;79.10;;;;;;4966795;28;20252;-50
2020/12/28 03:11:22;;;;;;;6.60;6.07;;;31.60;79.00;;;;;;4951773;28;20236;-48
2020/12/28 03:13:53;;;;;;;6.45;5.95;;;31.70;79.20;;;;;;4963256;28;20233;-49
2020/12/28 03:16:23;;;;;;;7.10;6.50;;;31.70;79.10;;;;;;4969466;28;20244;-48
2020/12/28 03:18:56;;;;;;;7.05;6.40;;;31.80;78.90;;;;;;4968707;28;20705;-50
2020/12/28 03:21:26;;;;;;;9.07;8.20;;;31.80;78.60;;;;;;4968426;28;20294;-49
2020/12/28 03:23:58;;;;;;;9.25;8.18;;;31.90;78.20;;;;;;4968457;28;20236;-53
2020/12/28 03:26:28;;;;;;;8.68;7.88;;;31.90;77.50;;;;;;4969561;28;20229;-48
2020/12/28 03:29:14;;;;;;;8.00;7.25;;;32.00;77.50;;;;;;4967025;28;20230;-50
2020/12/28 03:31:45;;;;;;;8.65;7.85;;;32.10;77.40;;;;;;4968710;28;20250;-51
2020/12/28 03:34:16;;;;;;;8.93;8.05;;;32.10;76.70;;;;;;4969933;28;20699;-52
2020/12/28 03:36:47;;;;;;;7.85;7.22;;;32.20;76.50;;;;;;4966143;28;20689;-49
2020/12/28 03:39:18;;;;;;;9.32;8.00;;;32.30;77.10;;;;;;4965902;28;20662;-50
2020/12/28 03:41:49;;;;;;;7.30;6.70;;;32.30;76.30;;;;;;4970450;28;20248;-53
2020/12/28 03:44:25;;;;;;;8.73;8.02;;;32.40;76.50;;;;;;4966376;28;20577;-55
2020/12/28 03:46:56;;;;;;;7.43;6.75;;;32.50;75.60;;;;;;4967264;28;20232;-51
2020/12/28 03:49:26;;;;;;;8.15;7.45;;;32.60;75.50;;;;;;4925957;28;20244;-50
2020/12/28 03:51:57;;;;;;;6.90;6.38;;;32.70;74.60;;;;;;4926478;28;20265;-51
2020/12/28 03:54:29;;;;;;;7.18;6.57;;;32.80;75.10;;;;;;4927637;29;20238;-49
2020/12/28 03:56:59;;;;;;;7.53;6.82;;;32.80;74.40;;;;;;4924652;28;20230;-50
2020/12/28 03:59:30;;;;;;;7.80;7.00;;;32.90;74.60;;;;;;4916175;28;20242;-50
2020/12/28 04:02:01;;;;;;;7.72;6.95;;;33.00;74.10;;;;;;4975061;28;20245;-50
2020/12/28 04:04:32;;;;;;;6.28;5.78;;;33.00;73.80;;;;;;4925121;28;20784;-51
2020/12/28 04:07:02;;;;;;;7.00;6.30;;;33.10;73.70;;;;;;4925424;28;20237;-52
2020/12/28 04:09:33;;;;;;;6.47;5.90;;;33.20;73.50;;;;;;4925587;28;20241;-50
2020/12/28 04:12:04;;;;;;;6.65;6.00;;;33.20;73.80;;;;;;4926604;28;20242;-49
2020/12/28 04:14:35;;;;;;;8.48;5.80;;;33.30;73.00;;;;;;4924524;28;20256;-52
2020/12/28 04:17:05;;;;;;;6.72;6.05;;;33.30;72.80;;;;;;4925767;28;20764;-50
2020/12/28 04:19:35;;;;;;;7.20;6.28;;;33.40;71.70;;;;;;4930647;28;20251;-51
2020/12/28 04:22:06;;;;;;;7.07;5.95;;;33.30;71.50;;;;;;4968310;28;20232;-51
2020/12/28 04:24:38;;;;;;;6.57;5.90;;;33.30;71.60;;;;;;4964431;28;20305;-48
2020/12/28 04:27:09;;;;;;;6.65;6.05;;;33.30;71.70;;;;;;4966546;28;20289;-48
2020/12/28 04:29:39;;;;;;;6.75;5.85;;;33.30;71.80;;;;;;4966115;28;20306;-52
2020/12/28 04:32:10;;;;;;;7.05;5.85;;;33.30;71.60;;;;;;4965824;28;20237;-48
2020/12/28 04:34:40;;;;;;;5.47;4.95;;;33.30;71.10;;;;;;4967408;28;20243;-50
2020/12/28 04:37:11;;;;;;;5.43;4.93;;;33.30;71.20;;;;;;4966950;28;20240;-48
2020/12/28 04:39:43;;;;;;;5.60;4.90;;;33.30;71.30;;;;;;4947284;28;20291;-51
2020/12/28 04:42:13;;;;;;;9.80;5.47;;;33.30;71.00;;;;;;4986099;28;20241;-49
2020/12/28 04:44:45;;;;;;;5.97;5.28;;;33.30;70.90;;;;;;5037516;28;20241;-50
2020/12/28 04:47:16;;;;;;;5.40;4.90;;;33.20;70.80;;;;;;4925596;28;20237;-51
2020/12/28 04:49:47;;;;;;;5.05;4.22;;;33.20;70.80;;;;;;4925296;28;20234;-48
2020/12/28 04:52:19;;;;;;;5.18;4.40;;;33.20;70.80;;;;;;4934863;28;20248;-49
2020/12/28 04:54:50;;;;;;;4.70;4.25;;;33.20;70.80;;;;;;4955205;28;20324;-51
2020/12/28 04:57:21;;;;;;;6.15;5.38;;;33.10;71.00;;;;;;4926547;28;20238;-48
2020/12/28 04:59:55;;;;;;;6.32;5.80;;;33.10;70.60;;;;;;4927102;29;20238;-50
2020/12/28 05:02:26;;;;;;;5.75;5.20;;;33.10;70.10;;;;;;4925661;28;20239;-51
2020/12/28 05:05:06;;;;;;;4.63;4.15;;;33.00;70.40;;;;;;4922673;28;20686;-51
2020/12/28 05:07:37;;;;;;;5.50;5.00;;;33.00;70.00;;;;;;4916463;28;20641;-49
2020/12/28 05:10:09;;;;;;;4.50;4.10;;;32.90;70.20;;;;;;4926660;29;20240;-52
2020/12/28 05:12:39;;;;;;;5.70;4.80;;;32.90;70.30;;;;;;4916198;28;20233;-51
2020/12/28 05:15:10;;;;;;;4.68;4.10;;;32.80;70.30;;;;;;4925592;28;20253;-52
2020/12/28 05:17:41;;;;;;;4.28;3.90;;;32.70;70.10;;;;;;4926001;28;20235;-47
2020/12/28 05:20:15;;;;;;;4.30;3.88;;;32.80;70.80;;;;;;4926924;28;20313;-52
2020/12/28 05:22:45;;;;;;;8.02;4.40;;;32.80;71.30;;;;;;4925666;28;20315;-48
2020/12/28 05:25:17;;;;;;;6.72;4.50;;;32.80;71.40;;;;;;4917261;28;20321;-49
2020/12/28 05:27:49;;;;;;;4.70;4.20;;;32.80;70.80;;;;;;4924870;28;20372;-47
2020/12/28 05:30:22;;;;;;;3.72;3.42;;;32.80;70.40;;;;;;4930342;28;20230;-48
2020/12/28 05:32:53;;;;;;;4.22;3.83;;;32.80;70.60;;;;;;4925287;28;20264;-49
2020/12/28 05:35:23;;;;;;;4.05;3.75;;;32.90;70.20;;;;;;4924712;28;20250;-49
2020/12/28 05:37:54;;;;;;;5.45;3.75;;;32.90;70.50;;;;;;4927413;28;20238;-48
2020/12/28 05:40:25;;;;;;;4.68;4.22;;;33.00;70.20;;;;;;4926360;28;20240;-49
2020/12/28 05:42:56;;;;;;;5.18;4.68;;;33.00;69.60;;;;;;4936495;28;20240;-50
2020/12/28 05:45:27;;;;;;;5.35;4.85;;;33.10;69.10;;;;;;5025339;28;20235;-53
2020/12/28 05:47:57;;;;;;;5.00;4.60;;;33.10;69.40;;;;;;4967512;28;20659;-48
2020/12/28 05:50:29;;;;;;;5.05;4.47;;;33.20;69.70;;;;;;4969584;28;20739;-50
2020/12/28 05:53:00;;;;;;;5.40;4.57;;;33.20;69.20;;;;;;4970228;28;20699;-48
2020/12/28 05:55:32;;;;;;;5.28;4.47;;;33.20;68.90;;;;;;4968773;28;20236;-50
2020/12/28 05:58:04;;;;;;;5.97;4.20;;;33.30;69.00;;;;;;4970188;28;20619;-55
2020/12/28 06:00:35;;;;;;;4.40;4.00;;;33.40;69.40;;;;;;4969463;28;20233;-54
2020/12/28 06:03:11;;;;;;;6.20;4.93;;;33.50;69.10;;;;;;4957950;28;20291;-51
2020/12/28 06:05:42;;;;;;;5.22;4.72;;;33.50;68.10;;;;;;4954613;28;20245;-53
2020/12/28 06:08:13;;;;;;;4.80;4.38;;;33.50;68.10;;;;;;4954076;28;20229;-51
2020/12/28 06:10:44;;;;;;;4.68;4.28;;;33.60;68.40;;;;;;4958616;28;20671;-50
2020/12/28 06:13:22;;;;;;;4.18;3.88;;;33.60;67.90;;;;;;4951266;28;20262;-49
2020/12/28 06:16:01;;;;;;;6.10;5.47;;;33.70;67.90;;;;;;4963318;28;20239;-53
2020/12/28 06:18:32;;;;;;;5.75;5.15;;;33.70;66.30;;;;;;4959211;28;20232;-49
2020/12/28 06:21:13;;;;;;;5.10;4.60;;;33.80;67.10;;;;;;4934624;28;20241;-48
2020/12/28 06:23:50;;;;;;;4.93;4.53;;;33.80;66.70;;;;;;4948988;28;20237;-50
2020/12/28 06:26:22;;;;;;;5.28;4.78;;;33.80;66.40;;;;;;4962315;28;20259;-49
2020/12/28 06:28:53;;;;;;;5.45;4.95;;;33.80;66.80;;;;;;4949316;28;20244;-49
2020/12/28 06:31:28;;;;;;;4.85;4.35;;;33.90;66.80;;;;;;5010755;28;20240;-51
2020/12/28 06:34:00;;;;;;;5.88;5.28;;;33.90;66.50;;;;;;5037138;28;20233;-49
2020/12/28 06:36:30;;;;;;;5.00;4.60;;;33.90;66.00;;;;;;5008147;28;20300;-50
2020/12/28 06:39:02;;;;;;;4.82;4.43;;;33.80;66.40;;;;;;5032287;28;20226;-49
2020/12/28 06:41:34;;;;;;;4.65;4.25;;;33.80;66.80;;;;;;5008130;28;20253;-50
2020/12/28 06:44:05;;;;;;;6.50;4.80;;;33.80;66.00;;;;;;5006357;28;20761;-48
2020/12/28 06:46:35;;;;;;;4.38;3.97;;;33.80;66.20;;;;;;5026955;28;20324;-50
2020/12/28 06:49:06;;;;;;;5.57;4.30;;;33.90;66.50;;;;;;4925553;29;20387;-51
2020/12/28 06:51:36;;;;;;;5.05;4.55;;;33.80;66.00;;;;;;4927758;29;20727;-49
2020/12/28 06:54:06;;;;;;;5.20;4.70;;;33.80;65.60;;;;;;4926845;29;20607;-48
2020/12/28 06:56:38;;;;;;;4.43;4.03;;;33.80;65.80;;;;;;4927413;29;20248;-50
2020/12/28 06:59:09;;;;;;;4.85;4.25;;;33.80;66.00;;;;;;4926305;29;20234;-51
2020/12/28 07:01:40;;;;;;;4.90;4.50;;;33.80;66.20;;;;;;4913522;28;20355;-50
2020/12/28 07:04:10;;;;;;;5.05;4.65;;;33.80;65.80;;;;;;4946089;28;20228;-50
2020/12/28 07:06:41;;;;;;;5.93;4.82;;;33.90;65.90;;;;;;4902456;28;20213;-51
2020/12/28 07:09:11;;;;;;;7.80;5.07;;;33.90;65.60;;;;;;4946379;28;20240;-51
2020/12/28 07:11:44;;;;;;;4.85;4.03;;;33.90;65.30;;;;;;4949049;28;20237;-50
2020/12/28 07:14:15;;;;;;;4.97;4.25;;;33.90;65.50;;;;;;4942996;28;20320;-50
2020/12/28 07:16:46;;;;;;;4.70;4.30;;;33.90;65.20;;;;;;4923214;28;20268;-53
2020/12/28 07:19:16;;;;;;;4.80;4.20;;;34.00;65.60;;;;;;4920301;28;20727;-50
2020/12/28 07:21:47;;;;;;;4.55;4.13;;;34.00;65.00;;;;;;4907436;29;20230;-54
2020/12/28 07:24:18;;;;;;;4.97;3.80;;;34.10;65.00;;;;;;4908147;29;20325;-52
2020/12/28 07:26:50;;;;;;;5.07;4.10;;;34.10;65.20;;;;;;4909464;29;20241;-52
2020/12/28 07:29:21;;;;;;;4.60;3.55;;;34.10;64.60;;;;;;4910334;29;20239;-50
2020/12/28 07:31:52;;;;;;;5.22;3.70;;;34.10;65.00;;;;;;4910274;29;20242;-53
2020/12/28 07:34:23;;;;;;;4.53;3.80;;;34.10;64.80;;;;;;4917830;29;20312;-50
2020/12/28 07:36:54;;;;;;;4.70;4.07;;;34.10;64.70;;;;;;4930304;29;20234;-49
2020/12/28 07:39:25;;;;;;;4.78;3.53;;;34.10;64.60;;;;;;4925932;29;20245;-49
2020/12/28 07:42:01;;;;;;;5.72;3.90;;;34.10;64.60;;;;;;4930557;29;20261;-52
2020/12/28 07:44:31;;;;;;;4.50;4.10;;;34.10;64.20;;;;;;4959316;28;20238;-49
2020/12/28 07:47:03;;;;;;;5.20;3.97;;;34.10;64.20;;;;;;5012804;28;20280;-49
2020/12/28 07:49:36;;;;;;;4.68;4.15;;;34.10;64.30;;;;;;5025587;28;20237;-54
2020/12/28 07:52:10;;;;;;;5.38;3.13;;;34.10;64.60;;;;;;5012563;28;20591;-49
2020/12/28 07:54:47;;;;;;;5.35;3.95;;;34.10;64.90;;;;;;4967981;28;20241;-52
2020/12/28 07:57:21;;;;;;;4.75;3.97;;;34.20;64.60;;;;;;4964926;28;20236;-53
2020/12/28 07:59:55;;;;;;;4.47;3.95;;;34.20;64.60;;;;;;4967230;28;20629;-53
2020/12/28 08:02:41;;;;;;;4.82;4.43;;;34.20;64.60;;;;;;4968664;28;20236;-51
2020/12/28 08:05:11;;;;;;;5.57;4.60;;;34.20;64.10;;;;;;4966221;28;20224;-51
2020/12/28 08:07:43;;;;;;;5.15;4.70;;;34.20;64.10;;;;;;4967747;28;20228;-51
2020/12/28 08:10:13;;;;;;;5.10;4.60;;;34.20;64.10;;;;;;5009999;28;20236;-50
2020/12/28 08:12:51;;;;;;;4.55;4.15;;;34.20;64.30;;;;;;4966939;28;20241;-49
2020/12/28 08:15:28;;;;;;;4.82;4.32;;;34.20;64.40;;;;;;4968027;28;20266;-49
2020/12/28 08:18:09;;;;;;;4.28;3.88;;;34.20;64.10;;;;;;4968418;28;20607;-49
2020/12/28 08:20:40;;;;;;;4.57;4.03;;;34.20;64.50;;;;;;4971875;28;20640;-51
2020/12/28 08:23:10;;;;;;;5.20;4.70;;;34.20;64.70;;;;;;4965557;28;20319;-48
2020/12/28 08:25:42;;;;;;;5.25;4.75;;;34.20;64.20;;;;;;4966057;28;20235;-53
2020/12/28 08:28:14;;;;;;;6.53;5.93;;;34.20;64.40;;;;;;4945969;28;20233;-51
2020/12/28 08:30:44;;;;;;;8.80;7.35;;;34.20;64.70;;;;;;4975078;28;20281;-52
2020/12/28 08:33:19;;;;;;;7.00;6.30;;;34.20;64.30;;;;;;4954059;28;20231;-50
2020/12/28 08:35:51;;;;;;;6.40;5.70;;;34.20;63.90;;;;;;4903239;28;20294;-48
2020/12/28 08:38:32;;;;;;;5.35;4.85;;;34.10;64.00;;;;;;4899863;28;20644;-50
2020/12/28 08:41:02;;;;;;;5.82;4.18;;;34.10;64.70;;;;;;4907199;28;20238;-52
2020/12/28 08:43:33;;;;;;;6.03;4.47;;;34.10;65.20;;;;;;4908052;28;20651;-53
2020/12/28 08:46:05;;;;;;;4.82;3.67;;;34.10;64.90;;;;;;4907970;28;20242;-51
2020/12/28 08:48:35;;;;;;;4.70;4.25;;;34.00;65.00;;;;;;4907513;28;20252;-50
2020/12/28 08:51:15;;;;;;;6.00;4.85;;;34.00;64.90;;;;;;4906915;28;20241;-50
2020/12/28 08:53:49;;;;;;;5.13;4.00;;;34.00;64.70;;;;;;4962049;28;20241;-53
2020/12/28 08:56:20;;;;;;;4.45;4.05;;;34.00;64.80;;;;;;4941713;28;20240;-50
2020/12/28 08:58:53;;;;;;;5.80;4.35;;;34.00;64.80;;;;;;4945108;28;20678;-51
2020/12/28 09:01:24;;;;;;;5.63;4.63;;;34.00;65.10;;;;;;4948474;28;20673;-51
2020/12/28 09:03:55;;;;;;;5.28;4.07;;;34.00;65.00;;;;;;4943410;28;20715;-51
2020/12/28 09:06:25;;;;;;;4.30;3.90;;;34.00;65.30;;;;;;4970618;28;20229;-52
2020/12/28 09:08:56;;;;;;;4.85;3.65;;;33.90;65.60;;;;;;4971467;28;20221;-52
2020/12/28 09:11:26;;;;;;;7.45;5.10;;;33.90;65.50;;;;;;4988542;28;20582;-54
2020/12/28 09:13:58;;;;;;;5.28;4.03;;;33.90;65.60;;;;;;4990326;28;20228;-54
2020/12/28 09:16:29;;;;;;;4.35;3.95;;;33.90;65.10;;;;;;4969698;28;20278;-54
2020/12/28 09:18:59;;;;;;;4.53;4.13;;;33.90;64.70;;;;;;4971687;28;20232;-51
2020/12/28 09:21:30;;;;;;;4.75;3.90;;;33.80;64.90;;;;;;4969771;28;20236;-50
2020/12/28 09:24:01;;;;;;;4.15;3.65;;;33.80;65.10;;;;;;4971377;28;20229;-53
2020/12/28 09:26:32;;;;;;;3.53;3.22;;;33.80;65.00;;;;;;4970709;28;20683;-56
2020/12/28 09:29:03;;;;;;;7.63;4.10;;;33.80;65.00;;;;;;4971836;28;20748;-52
2020/12/28 09:31:34;;;;;;;5.95;4.18;;;33.80;64.50;;;;;;4971208;28;20294;-51
2020/12/28 09:34:05;;;;;;;5.63;4.55;;;33.80;64.40;;;;;;4960638;28;20247;-50
2020/12/28 09:36:36;;;;;;;5.18;3.80;;;33.80;64.20;;;;;;4970665;28;20236;-51
2020/12/28 09:39:06;;;;;;;7.03;3.80;;;33.80;63.90;;;;;;4970919;28;20232;-53
2020/12/28 09:41:37;;;;;;;4.70;4.20;;;33.70;64.10;;;;;;4970442;28;20285;-53
2020/12/28 09:44:08;;;;;;;6.82;4.88;;;33.60;64.20;;;;;;4969246;28;20268;-50
2020/12/28 09:46:39;;;;;;;5.38;4.78;;;33.70;64.50;;;;;;4969820;28;20240;-49
2020/12/28 09:49:09;;;;;;;7.53;5.30;;;33.70;64.70;;;;;;4969645;28;20233;-49
2020/12/28 09:51:40;;;;;;;6.53;4.85;;;33.70;64.80;;;;;;4969797;28;20879;-50
2020/12/28 09:54:10;;;;;;;8.32;4.97;;;33.70;64.90;;;;;;4964087;28;20233;-52
2020/12/28 09:57:04;;;;;;;5.95;5.10;;;33.80;64.90;;;;;;4970270;28;20231;-51
2020/12/28 09:59:40;;;;;;;7.40;5.13;;;33.80;64.90;;;;;;4969449;28;20236;-48
2020/12/28 10:02:10;;;;;;;5.47;4.13;;;33.80;65.20;;;;;;4970673;28;20259;-54
2020/12/28 10:04:41;;;;;;;6.18;5.43;;;33.80;65.40;;;;;;4968588;28;20286;-51
2020/12/28 10:07:11;;;;;;;6.30;5.07;;;33.80;66.00;;;;;;4969667;28;20758;-49
2020/12/28 10:09:42;;;;;;;5.53;4.90;;;33.80;66.10;;;;;;4968730;28;20716;-53
2020/12/28 10:12:13;;;;;;;5.90;5.30;;;33.80;66.00;;;;;;4968054;28;20240;-51
2020/12/28 10:14:44;;;;;;;6.30;4.53;;;33.80;65.90;;;;;;4969218;28;20235;-49
2020/12/28 10:17:15;;;;;;;4.63;4.10;;;33.70;66.10;;;;;;4962334;28;20229;-52
2020/12/28 10:19:45;;;;;;;5.25;4.30;;;33.70;66.10;;;;;;4967552;28;20294;-51
2020/12/28 10:22:16;;;;;;;4.90;4.40;;;33.70;65.70;;;;;;4968663;28;20720;-50
2020/12/28 10:24:46;;;;;;;6.53;5.38;;;33.70;65.80;;;;;;4971429;28;20975;-49
2020/12/28 10:27:17;;;;;;;6.30;4.85;;;33.80;65.80;;;;;;4969890;28;20774;-49
2020/12/28 10:29:49;;;;;;;5.70;4.72;;;33.80;65.80;;;;;;4962418;28;20225;-51
2020/12/28 10:32:19;;;;;;;5.38;4.47;;;33.90;65.80;;;;;;4968649;28;20240;-48
2020/12/28 10:34:51;;;;;;;5.53;4.10;;;33.90;65.80;;;;;;4968733;28;20259;-47
2020/12/28 10:37:25;;;;;;;5.13;4.55;;;33.90;65.80;;;;;;4964545;28;20225;-48
2020/12/28 10:39:56;;;;;;;5.80;4.18;;;33.80;65.60;;;;;;4968318;28;20290;-48
2020/12/28 10:42:26;;;;;;;4.57;4.18;;;33.80;65.70;;;;;;4967864;28;20236;-48
2020/12/28 10:44:58;;;;;;;4.25;3.85;;;33.80;65.60;;;;;;4970998;28;20239;-47
2020/12/28 10:47:28;;;;;;;6.70;4.65;;;33.70;65.50;;;;;;4961789;28;20220;-47
2020/12/28 10:49:59;;;;;;;6.13;4.93;;;33.60;65.50;;;;;;4960795;28;20225;-48
2020/12/28 10:52:30;;;;;;;5.43;4.70;;;33.50;65.50;;;;;;4966824;28;20234;-47
2020/12/28 10:55:00;;;;;;;5.88;4.40;;;33.50;65.70;;;;;;4967776;28;20290;-47
2020/12/28 10:57:31;;;;;;;6.43;4.80;;;33.40;65.90;;;;;;4969380;28;20623;-47
2020/12/28 11:00:03;;;;;;;6.85;4.97;;;33.30;66.10;;;;;;4917863;29;20242;-47
2020/12/28 11:02:33;;;;;;;5.53;4.95;;;33.20;66.60;;;;;;4928813;29;20230;-49
2020/12/28 11:05:04;;;;;;;5.60;4.32;;;33.10;67.00;;;;;;4928887;29;20772;-47
2020/12/28 11:07:35;;;;;;;4.90;4.40;;;33.00;67.50;;;;;;4927019;29;20244;-47
2020/12/28 11:10:06;;;;;;;4.38;3.90;;;32.80;67.80;;;;;;4926726;28;20725;-48
2020/12/28 11:12:36;;;;;;;4.18;3.78;;;32.70;67.90;;;;;;4927881;29;20242;-47
2020/12/28 11:15:08;;;;;;;4.43;4.03;;;32.70;68.20;;;;;;4928958;29;20292;-47
2020/12/28 11:17:38;;;;;;;7.30;4.60;;;32.60;68.60;;;;;;4935892;28;20230;-47
2020/12/28 11:20:09;;;;;;;7.10;4.00;;;32.50;69.00;;;;;;4925681;29;20234;-48
2020/12/28 11:22:39;;;;;;;4.25;3.30;;;32.40;69.30;;;;;;4927080;28;20318;-48
2020/12/28 11:25:09;;;;;;;4.05;3.08;;;32.40;69.50;;;;;;4929436;29;20242;-51
2020/12/28 11:27:40;;;;;;;5.03;4.05;;;32.40;69.70;;;;;;4925462;28;20240;-49
2020/12/28 11:30:12;;;;;;;8.10;5.45;;;32.30;69.90;;;;;;4928542;28;20291;-51
2020/12/28 11:32:43;;;;;;;6.90;6.18;;;32.30;70.30;;;;;;4967509;28;20240;-51
2020/12/28 11:35:14;;;;;;;6.55;5.30;;;32.20;70.60;;;;;;4959864;28;20286;-54
2020/12/28 11:37:45;;;;;;;5.63;4.32;;;32.20;70.80;;;;;;4965220;28;20942;-51
2020/12/28 11:40:16;;;;;;;5.55;4.75;;;32.20;71.10;;;;;;4959387;28;20419;-52
2020/12/28 11:42:46;;;;;;;5.10;4.60;;;32.10;71.50;;;;;;4965759;28;20286;-50
2020/12/28 11:45:18;;;;;;;5.72;4.53;;;32.10;71.80;;;;;;4965131;28;20228;-55
2020/12/28 11:47:49;;;;;;;16.58;9.88;;;32.00;71.80;;;;;;4964844;28;20273;-49
2020/12/28 11:50:19;;;;;;;15.20;11.80;;;32.00;71.80;;;;;;4966350;28;20256;-53
2020/12/28 11:52:50;;;;;;;10.55;8.88;;;32.00;72.00;;;;;;4966040;28;20248;-49
2020/12/28 11:55:21;;;;;;;11.32;9.65;;;31.90;72.10;;;;;;4965714;28;20237;-48
2020/12/28 11:57:52;;;;;;;14.98;13.30;;;31.90;72.20;;;;;;4966402;28;20244;-48
2020/12/28 12:00:23;;;;;;;21.15;16.30;;;31.90;72.30;;;;;;4966141;28;20232;-49
2020/12/28 12:02:54;;;;;;;18.23;15.60;;;31.90;72.40;;;;;;4965138;28;20695;-53
2020/12/28 12:05:25;;;;;;;15.23;13.68;;;31.90;72.60;;;;;;4963981;28;20233;-50
2020/12/28 12:07:57;;;;;;;24.35;19.13;;;31.90;72.60;;;;;;4964470;28;20333;-48
2020/12/28 12:10:28;;;;;;;36.10;24.70;;;31.90;72.80;;;;;;4964977;28;20350;-49
2020/12/28 12:12:58;;;;;;;12.30;9.75;;;31.90;72.80;;;;;;4953893;28;20301;-48
2020/12/28 12:15:30;;;;;;;7.93;6.10;;;31.80;72.80;;;;;;4963927;28;20237;-50
2020/12/28 12:18:01;;;;;;;7.82;5.53;;;31.80;73.00;;;;;;4964981;28;20224;-50
2020/12/28 12:20:31;;;;;;;5.82;4.85;;;31.80;73.10;;;;;;4964243;28;20220;-54
2020/12/28 12:23:02;;;;;;;6.00;4.88;;;31.80;73.00;;;;;;4964688;28;20243;-51
2020/12/28 12:25:32;;;;;;;6.55;5.57;;;31.70;73.10;;;;;;4960578;28;21874;-48
2020/12/28 12:28:03;;;;;;;9.07;5.50;;;31.70;73.40;;;;;;4971269;28;20232;-48
2020/12/28 12:30:35;;;;;;;6.47;5.03;;;31.70;73.40;;;;;;4968453;28;20232;-50
2020/12/28 12:33:06;;;;;;;6.28;5.13;;;31.70;73.60;;;;;;4963517;28;20237;-50
2020/12/28 12:35:36;;;;;;;10.73;7.97;;;31.70;73.70;;;;;;4963279;28;20229;-50
2020/12/28 12:38:07;;;;;;;11.25;8.20;;;31.70;73.90;;;;;;4964546;28;20236;-51
2020/12/28 12:40:38;;;;;;;8.93;7.22;;;31.60;73.80;;;;;;4948292;28;20245;-51
2020/12/28 12:43:08;;;;;;;10.07;7.38;;;31.60;73.90;;;;;;4961097;28;20270;-49
2020/12/28 12:45:40;;;;;;;9.45;7.05;;;31.60;74.10;;;;;;4963110;28;20251;-51
2020/12/28 12:48:11;;;;;;;12.65;8.55;;;31.60;74.30;;;;;;4964503;28;20266;-48
2020/12/28 12:50:41;;;;;;;20.70;17.10;;;31.60;74.30;;;;;;4969484;28;20240;-52
2020/12/28 12:53:12;;;;;;;23.48;16.75;;;31.60;74.40;;;;;;4919258;28;20230;-49
2020/12/28 12:55:43;;;;;;;19.77;15.60;;;31.50;74.40;;;;;;4923255;29;20238;-51
2020/12/28 12:58:14;;;;;;;18.13;14.73;;;31.50;74.50;;;;;;4921762;28;20238;-50
2020/12/28 13:00:46;;;;;;;20.35;13.73;;;31.50;74.60;;;;;;4917828;29;20345;-50
2020/12/28 13:03:17;;;;;;;17.08;12.23;;;31.50;74.70;;;;;;4920685;28;20238;-49
2020/12/28 13:05:47;;;;;;;12.52;9.45;;;31.50;74.70;;;;;;4921921;28;20253;-52
2020/12/28 13:08:19;;;;;;;19.55;13.10;;;31.50;74.70;;;;;;4921160;28;20659;-53